Latest Weather Observations for Fortescue Dave Forrest

IDW60801

Issued at 7:33 pm WST Saturday 4 July 2015 (issued every 30 minutes, with the page automatically refreshed every 10 minutes)

About weather observations | Map of weather stations | Latest weather observations for WA | Other Formats
Station Details ID: 505056 Name: FORTESCUE DAVE FORREST Lat: -22.29 Lon: 119.43 Height: 474.6 m
Data from the previous 72 hours. | See also: Recent months for locations in Western Australia
Date/Time
WST
Temp
°C
App
Temp
°C
Dew
Point
Rel
Hum
%
Delta-T
°C
Wind Press
QNH
hPa
Press
MSL
hPa
Rain
since 9 am
mm
Dir
 
Spd
km/h
Gust
km/h
Spd
kts
Gust
kts
04/07:30pm 17.0 15.1 3.1 39 6.5 ESE 2 4 1 2 1020.7 1020.0 0.0
04/07:00pm 17.9 15.5 2.0 34 7.4 ESE 4 6 2 3 1020.6 1019.9 0.0
04/06:30pm 18.6 15.7 1.6 32 7.8 SE 6 9 3 5 1020.4 1019.7 0.0
04/06:00pm 19.6 16.1 1.4 29 8.4 SE 9 11 5 6 1020.2 1019.5 0.0
04/05:30pm 20.8 17.3 1.0 26 9.2 SSE 9 15 5 8 1019.8 1019.1 0.0
04/05:00pm 22.6 18.2 0.6 23 10.3 SE 13 17 7 9 1019.8 1019.1 0.0
04/04:30pm 23.7 18.9 0.4 21 11.0 SE 15 22 8 12 1019.8 1019.1 0.0
04/04:00pm 24.1 18.9 0.1 20 11.2 SE 17 24 9 13 1019.8 1019.1 0.0
04/03:30pm 24.6 19.9 0.9 21 11.3 SSE 15 30 8 16 1019.7 1019.0 0.0
04/03:00pm 24.2 18.8 1.0 21 11.0 SE 19 28 10 15 1019.9 1019.2 0.0
04/02:30pm 24.5 19.4 0.8 21 11.3 SSE 17 30 9 16 1020.2 1019.5 0.0
04/02:00pm 24.6 19.9 0.7 21 11.3 SSE 15 28 8 15 1020.3 1019.6 0.0
04/01:30pm 23.7 18.5 0.2 21 11.0 SE 17 26 9 14 1020.6 1019.9 0.0
04/01:00pm 23.3 17.8 0.3 22 10.7 SE 19 32 10 17 1020.8 1020.1 0.0
04/12:30pm 22.9 17.2 0.7 23 10.4 SSE 20 28 11 15 1021.2 1020.5 0.0
04/12:00pm 22.3 16.5 -0.2 22 10.3 SE 20 32 11 17 1021.8 1021.2 0.0
04/11:30am 21.5 16.0 0.9 25 9.6 ESE 19 28 10 15 1022.1 1021.5 0.0
04/11:00am 21.1 17.0 2.3 29 9.0 SE 13 20 7 11 1022.6 1021.9 0.0
04/10:30am 20.3 17.1 3.0 32 8.3 SE 9 17 5 9 1023.0 1022.3 0.0
04/10:00am 18.7 15.6 3.7 37 7.2 SE 9 17 5 9 1023.2 1022.5 0.0
04/09:30am 17.2 14.7 4.0 41 6.3 SE 6 9 3 5 1023.2 1022.5 0.0
04/09:00am 15.3 12.2 3.7 46 5.4 SE 9 15 5 8 1023.1 1022.4 -
04/08:30am 13.5 10.1 4.0 52 4.4 SE 11 15 6 8 1023.0 1022.3 -
04/08:00am 11.8 9.4 4.5 61 3.4 ESE 6 9 3 5 1023.0 1022.3 -
04/07:30am 10.6 8.6 4.6 66 2.8 SE 4 6 2 3 1022.6 1021.9 -
04/07:00am 9.1 7.0 4.0 70 2.3 SE 4 6 2 3 1022.2 1021.6 -
04/06:30am 9.6 6.9 3.7 66 2.6 SE 7 9 4 5 1021.9 1021.3 -
04/06:00am 8.2 6.2 4.5 77 1.7 SE 4 6 2 3 1021.6 1020.9 -
04/05:30am 8.9 7.0 5.0 76 1.8 ESE 4 6 2 3 1021.4 1020.7 -
04/05:00am 9.9 7.6 5.7 75 2.0 SE 7 9 4 5 1021.3 1020.6 -
04/04:30am 8.6 7.1 5.0 78 1.7 E 2 4 1 2 1021.4 1020.7 -
04/04:00am 9.1 8.0 5.1 76 1.8 CALM 0 2 0 1 1021.3 1020.6 -
04/03:30am 8.4 6.5 4.7 77 1.7 SSE 4 4 2 2 1021.4 1020.7 -
04/03:00am 10.4 9.0 5.4 71 2.3 ESE 2 4 1 2 1021.5 1020.8 0.0
04/02:30am 10.1 7.9 5.1 71 2.3 SE 6 6 3 3 1021.5 1020.8 -
04/02:00am 10.0 8.5 4.9 70 2.4 WSW 2 2 1 1 1021.6 1020.9 -
04/01:30am 10.7 9.2 4.9 67 2.7 SW 2 2 1 1 1021.6 1020.9 -
04/01:00am 12.0 10.9 5.1 62 3.2 CALM 0 2 0 1 1021.8 1021.2 -
04/12:30am 11.9 9.8 5.7 66 3.0 S 6 7 3 4 1021.9 1021.3 -
04/12:00am 11.9 10.0 4.7 61 3.4 SSE 4 6 2 3 1021.8 1021.2 -
 
Date/Time
WST
Temp
°C
App
Temp
°C
Dew
Point
Rel
Hum
%
Delta-T
°C
Wind Press
QNH
hPa
Press
MSL
hPa
Rain
since 9 am
mm
Dir
 
Spd
km/h
Gust
km/h
Spd
kts
Gust
kts
03/11:30pm 12.7 11.2 4.9 59 3.7 S 2 2 1 1 1022.0 1021.4 -
03/11:00pm 13.6 12.1 5.1 56 4.1 WNW 2 2 1 1 1022.2 1021.6 -
03/10:30pm 13.5 12.0 5.1 57 4.0 N 2 2 1 1 1022.4 1021.7 -
03/10:00pm 14.1 12.7 5.3 55 4.2 NE 2 4 1 2 1022.5 1021.8 -
03/09:30pm 14.1 12.7 5.7 57 4.1 NNE 2 4 1 2 1022.5 1021.8 -
03/09:00pm 14.2 12.8 5.6 56 4.2 NNE 2 4 1 2 1022.5 1021.8 -
03/08:30pm 14.7 13.3 5.5 54 4.5 N 2 4 1 2 1022.5 1021.8 -
03/08:00pm 16.3 14.9 5.3 48 5.4 ESE 2 4 1 2 1022.4 1021.7 -
03/07:30pm 17.9 15.9 4.3 40 6.6 ESE 4 6 2 3 1022.1 1021.5 -
03/07:00pm 18.7 16.2 3.7 37 7.2 SE 6 7 3 4 1021.9 1021.3 -
03/04:30pm 23.2 19.2 2.9 26 10.0 SSE 13 20 7 11 1020.8 1020.1 -
03/04:00pm 23.7 19.7 2.7 25 10.3 SSE 13 22 7 12 1020.6 1019.9 0.0
03/03:30pm 23.4 19.4 2.7 25 10.1 SE 13 22 7 12 1020.5 1019.8 0.0
03/03:00pm 24.2 20.6 2.9 25 10.5 S 11 19 6 10 1020.6 1019.9 0.0
03/02:30pm 24.0 19.6 2.8 25 10.4 SSE 15 24 8 13 1020.7 1020.0 0.0
03/02:00pm 23.9 19.9 2.6 25 10.4 SE 13 26 7 14 1020.7 1020.0 0.0
03/01:30pm 23.2 18.8 2.9 26 10.0 SE 15 26 8 14 1021.0 1020.3 0.0
03/01:00pm 23.5 19.1 2.9 26 10.1 SE 15 24 8 13 1021.4 1020.7 0.0
03/12:30pm 23.4 18.7 3.2 26 10.0 SE 17 28 9 15 1021.8 1021.2 0.0
03/12:00pm 22.8 17.6 2.7 26 9.8 SE 19 32 10 17 1022.5 1021.8 0.0
03/11:30am 22.7 17.1 3.6 28 9.5 SE 22 30 12 16 1023.1 1022.4 0.0
03/11:00am 22.5 17.4 4.1 30 9.2 ESE 20 28 11 15 1023.4 1022.7 0.0
03/10:30am 21.5 16.5 3.8 31 8.7 ESE 19 26 10 14 1023.7 1023.1 0.0
03/10:00am 20.2 17.0 5.2 37 7.5 SE 11 17 6 9 1024.1 1023.5 0.0
03/09:30am 18.6 15.5 5.5 42 6.6 ESE 11 17 6 9 1024.3 1023.7 0.0
03/09:00am 16.3 14.2 5.7 49 5.2 ESE 6 11 3 6 1024.2 1023.6 -
03/08:30am 13.8 11.8 6.2 60 3.7 E 6 7 3 4 1024.0 1023.4 -
03/08:00am 12.4 10.4 6.1 65 3.0 SE 6 11 3 6 1023.9 1023.3 -
03/07:30am 10.2 8.5 6.0 75 2.0 SSE 4 7 2 4 1023.5 1022.8 -
03/07:00am 9.4 7.7 5.7 78 1.7 SSE 4 6 2 3 1023.2 1022.5 -
03/06:30am 9.2 7.0 5.5 78 1.7 SSE 6 6 3 3 1023.0 1022.3 -
03/06:00am 8.7 7.3 5.4 80 1.5 SSE 2 4 1 2 1022.8 1022.1 -
03/05:30am 10.5 8.5 6.3 75 2.0 SE 6 7 3 4 1022.6 1021.9 -
03/05:00am 10.6 8.4 6.3 75 2.1 SSE 7 7 4 4 1022.4 1021.7 -
03/04:30am 10.5 8.5 6.4 76 2.0 SSE 6 7 3 4 1022.1 1021.5 -
03/04:00am 10.4 8.2 6.2 75 2.0 SSE 7 7 4 4 1022.2 1021.6 -
03/03:30am 10.9 9.5 5.6 70 2.5 SSE 2 4 1 2 1022.2 1021.6 -
03/03:00am 11.6 9.9 6.1 69 2.6 SE 4 6 2 3 1022.4 1021.7 0.0
03/02:30am 12.4 9.9 4.7 59 3.6 SSE 7 11 4 6 1022.4 1021.7 -
03/02:00am 11.4 9.9 5.1 65 3.0 SSE 2 4 1 2 1022.6 1021.9 -
03/01:30am 11.7 10.2 5.0 63 3.2 SW 2 4 1 2 1022.8 1022.1 -
03/01:00am 12.7 11.1 4.7 58 3.8 SE 2 4 1 2 1023.0 1022.3 -
03/12:30am 13.8 11.8 4.5 53 4.4 SE 4 6 2 3 1023.2 1022.5 -
03/12:00am 13.2 10.9 4.9 57 3.9 SE 6 7 3 4 1023.3 1022.6 -
 
Date/Time
WST
Temp
°C
App
Temp
°C
Dew
Point
Rel
Hum
%
Delta-T
°C
Wind Press
QNH
hPa
Press
MSL
hPa
Rain
since 9 am
mm
Dir
 
Spd
km/h
Gust
km/h
Spd
kts
Gust
kts
02/11:30pm 15.0 13.1 4.7 50 4.9 ESE 4 7 2 4 1023.4 1022.7 -
02/11:00pm 14.3 12.5 5.2 54 4.4 E 4 6 2 3 1023.4 1022.7 -
02/10:30pm 15.8 13.4 4.4 46 5.5 ENE 6 7 3 4 1023.4 1022.7 -
02/10:00pm 15.9 13.9 4.4 46 5.5 ESE 4 6 2 3 1023.7 1023.1 -
02/09:30pm 16.4 13.8 4.4 45 5.8 ESE 7 13 4 7 1023.5 1022.8 -
02/09:00pm 15.6 14.2 5.3 50 5.0 ENE 2 6 1 3 1023.4 1022.7 -
02/08:30pm 16.6 14.4 5.1 46 5.6 E 6 7 3 4 1023.4 1022.7 -
02/08:00pm 15.3 14.0 6.0 54 4.6 ESE 2 4 1 2 1023.3 1022.6 -
02/07:30pm 16.8 15.4 5.6 47 5.5 NNW 2 4 1 2 1023.2 1022.5 -
02/07:00pm 18.6 17.1 5.0 40 6.7 S 2 4 1 2 1022.8 1022.1 -
02/06:30pm 20.0 17.6 4.3 35 7.7 SSE 6 9 3 5 1022.5 1021.8 -
02/06:00pm 20.1 16.7 4.0 34 7.9 SSE 11 15 6 8 1022.2 1021.6 -
02/03:30pm 24.9 - 3.5 25 10.7 - - - - - 1021.4 1020.7 -
02/03:00pm 24.9 - 3.4 24 10.7 - - - - - 1021.5 1020.8 -
02/11:30am 23.4 17.6 2.4 25 10.2 ENE 22 33 12 18 1024.3 1023.7 0.0
02/11:00am 23.3 17.9 2.4 25 10.1 ENE 20 35 11 19 1024.8 1024.1 0.0
02/10:30am 23.6 19.7 3.2 26 10.1 E 13 22 7 12 1025.0 1024.3 0.0
02/09:00am 16.3 14.2 6.0 50 5.1 ESE 6 9 3 5 1025.5 1024.9 -
02/08:30am 14.2 12.2 6.1 58 4.0 ESE 6 9 3 5 1025.3 1024.6 -
02/08:00am 12.4 10.3 5.8 64 3.2 SSE 6 9 3 5 1025.1 1024.4 -
02/07:30am 9.6 8.5 5.3 74 2.0 CALM 0 2 0 1 1024.8 1024.1 -
02/07:00am 8.5 7.4 5.0 78 1.6 CALM 0 2 0 1 1024.3 1023.7 -
02/06:30am 9.1 7.3 5.2 76 1.8 ESE 4 6 2 3 1024.1 1023.5 -
02/06:00am 9.0 7.1 5.1 76 1.8 SE 4 4 2 2 1023.9 1023.3 -
02/05:30am 9.0 6.8 5.3 77 1.7 SE 6 7 3 4 1023.6 1023.0 -
02/05:00am 8.8 7.4 5.3 79 1.6 SE 2 6 1 3 1023.5 1022.8 -
02/04:30am 9.5 8.1 5.6 76 1.8 SSE 2 6 1 3 1023.4 1022.7 -
02/04:00am 10.1 8.4 5.7 74 2.1 SSE 4 6 2 3 1023.3 1022.6 -
02/03:30am 10.1 8.7 5.3 72 2.2 SE 2 6 1 3 1023.2 1022.5 -
02/03:00am 10.8 8.7 6.0 72 2.3 SSE 6 7 3 4 1023.2 1022.5 0.0
02/02:30am 10.4 8.1 4.7 68 2.6 SE 6 9 3 5 1023.3 1022.6 -
02/02:00am 10.0 8.4 4.6 69 2.5 WNW 2 4 1 2 1023.7 1023.1 -
02/01:30am 11.3 9.4 4.7 64 3.1 S 4 6 2 3 1023.8 1023.2 -
02/01:00am 11.8 9.9 4.7 62 3.3 SSE 4 6 2 3 1024.0 1023.4 -
02/12:30am 11.9 9.9 4.2 59 3.6 WSW 4 6 2 3 1024.0 1023.4 -
02/12:00am 11.9 9.9 4.6 61 3.4 NNW 4 4 2 2 1024.0 1023.4 -
 
Date/Time
WST
Temp
°C
App
Temp
°C
Dew
Point
Rel
Hum
%
Delta-T
°C
Wind Press
QNH
hPa
Press
MSL
hPa
Rain
since 9 am
mm
Dir
 
Spd
km/h
Gust
km/h
Spd
kts
Gust
kts
01/11:30pm 12.5 10.5 4.4 58 3.8 SSW 4 6 2 3 1024.2 1023.6 -
01/11:00pm 13.9 11.8 4.0 51 4.6 SE 4 4 2 2 1024.3 1023.7 -
01/10:30pm 14.8 12.8 4.5 50 4.9 SE 4 6 2 3 1024.4 1023.8 -
01/10:00pm 14.6 12.1 3.8 48 5.0 SSW 6 7 3 4 1024.3 1023.7 -
01/09:30pm 14.2 12.7 5.2 54 4.3 SSW 2 2 1 1 1024.3 1023.7 -
01/09:00pm 14.7 13.2 4.8 51 4.7 NNE 2 2 1 1 1024.3 1023.7 -
01/08:30pm 15.4 13.8 4.7 49 5.1 W 2 6 1 3 1024.2 1023.6 -
01/08:00pm 15.9 14.3 4.5 46 5.5 NE 2 6 1 3 1024.0 1023.4 -

Other Formats:

Comma delimited format used in spreadsheet applications
http://www.bom.gov.au/fwo/IDW60801/IDW60801.99736.axf

JavaScript Object Notation format (JSON) in row-major order
http://www.bom.gov.au/fwo/IDW60801/IDW60801.99736.json